sensor_id;sensor_type;location;lat;lon;timestamp;temperature;humidity
13462;DHT22;6803;45.264;5.468;2023-06-26T00:00:21;19.80;99.90
13462;DHT22;6803;45.264;5.468;2023-06-26T00:02:52;19.80;99.90
13462;DHT22;6803;45.264;5.468;2023-06-26T00:05:23;19.80;99.90
13462;DHT22;6803;45.264;5.468;2023-06-26T00:07:54;19.90;99.90
13462;DHT22;6803;45.264;5.468;2023-06-26T00:10:26;19.80;99.90
13462;DHT22;6803;45.264;5.468;2023-06-26T00:12:56;19.70;99.90
13462;DHT22;6803;45.264;5.468;2023-06-26T00:15:27;19.30;99.90
13462;DHT22;6803;45.264;5.468;2023-06-26T00:18:00;19.30;99.90
13462;DHT22;6803;45.264;5.468;2023-06-26T00:20:33;19.20;99.90
13462;DHT22;6803;45.264;5.468;2023-06-26T00:23:04;19.20;99.90
13462;DHT22;6803;45.264;5.468;2023-06-26T00:25:36;19.30;99.90
13462;DHT22;6803;45.264;5.468;2023-06-26T00:28:07;19.40;99.90
13462;DHT22;6803;45.264;5.468;2023-06-26T00:30:38;19.40;99.90
13462;DHT22;6803;45.264;5.468;2023-06-26T00:33:09;19.40;99.90
13462;DHT22;6803;45.264;5.468;2023-06-26T00:35:40;19.50;99.90
13462;DHT22;6803;45.264;5.468;2023-06-26T00:38:11;19.40;99.90
13462;DHT22;6803;45.264;5.468;2023-06-26T00:40:41;19.40;99.90
13462;DHT22;6803;45.264;5.468;2023-06-26T00:43:12;19.30;99.90
13462;DHT22;6803;45.264;5.468;2023-06-26T00:45:43;19.40;99.90
13462;DHT22;6803;45.264;5.468;2023-06-26T00:48:14;19.60;99.90
13462;DHT22;6803;45.264;5.468;2023-06-26T00:50:45;19.60;99.90
13462;DHT22;6803;45.264;5.468;2023-06-26T00:53:16;19.30;99.90
13462;DHT22;6803;45.264;5.468;2023-06-26T00:55:47;19.10;99.90
13462;DHT22;6803;45.264;5.468;2023-06-26T00:58:17;19.20;99.90
13462;DHT22;6803;45.264;5.468;2023-06-26T01:00:48;19.20;99.90
13462;DHT22;6803;45.264;5.468;2023-06-26T01:03:19;19.00;99.90
13462;DHT22;6803;45.264;5.468;2023-06-26T01:05:52;18.90;99.90
13462;DHT22;6803;45.264;5.468;2023-06-26T01:08:23;19.00;99.90
13462;DHT22;6803;45.264;5.468;2023-06-26T01:10:54;19.10;99.90
13462;DHT22;6803;45.264;5.468;2023-06-26T01:13:26;19.10;99.90
13462;DHT22;6803;45.264;5.468;2023-06-26T01:15:59;19.00;99.90
13462;DHT22;6803;45.264;5.468;2023-06-26T01:18:30;18.80;99.90
13462;DHT22;6803;45.264;5.468;2023-06-26T01:21:02;19.00;99.90
13462;DHT22;6803;45.264;5.468;2023-06-26T01:23:38;19.00;99.90
13462;DHT22;6803;45.264;5.468;2023-06-26T01:26:17;19.10;99.90
13462;DHT22;6803;45.264;5.468;2023-06-26T01:28:51;19.10;99.90
13462;DHT22;6803;45.264;5.468;2023-06-26T01:31:23;18.90;99.90
13462;DHT22;6803;45.264;5.468;2023-06-26T01:33:55;19.10;99.90
13462;DHT22;6803;45.264;5.468;2023-06-26T01:36:27;19.10;99.90
13462;DHT22;6803;45.264;5.468;2023-06-26T01:38:58;19.10;99.90
13462;DHT22;6803;45.264;5.468;2023-06-26T01:41:28;19.10;99.90
13462;DHT22;6803;45.264;5.468;2023-06-26T01:44:06;19.00;99.90
13462;DHT22;6803;45.264;5.468;2023-06-26T01:46:39;18.80;99.90
13462;DHT22;6803;45.264;5.468;2023-06-26T01:49:14;18.80;99.90
13462;DHT22;6803;45.264;5.468;2023-06-26T01:51:47;18.80;99.90
13462;DHT22;6803;45.264;5.468;2023-06-26T01:54:18;18.80;99.90
13462;DHT22;6803;45.264;5.468;2023-06-26T01:56:52;18.80;99.90
13462;DHT22;6803;45.264;5.468;2023-06-26T01:59:23;18.70;99.90
13462;DHT22;6803;45.264;5.468;2023-06-26T02:04:37;18.70;99.90
13462;DHT22;6803;45.264;5.468;2023-06-26T02:07:07;18.60;99.90
13462;DHT22;6803;45.264;5.468;2023-06-26T02:09:39;18.50;99.90
13462;DHT22;6803;45.264;5.468;2023-06-26T02:12:10;18.50;99.90
13462;DHT22;6803;45.264;5.468;2023-06-26T02:14:41;18.50;99.90
13462;DHT22;6803;45.264;5.468;2023-06-26T02:17:12;18.50;99.90
13462;DHT22;6803;45.264;5.468;2023-06-26T02:19:43;18.50;99.90
13462;DHT22;6803;45.264;5.468;2023-06-26T02:22:17;18.50;99.90
13462;DHT22;6803;45.264;5.468;2023-06-26T02:24:48;18.50;99.90
13462;DHT22;6803;45.264;5.468;2023-06-26T02:27:19;18.40;99.90
13462;DHT22;6803;45.264;5.468;2023-06-26T02:29:49;18.30;99.90
13462;DHT22;6803;45.264;5.468;2023-06-26T02:32:20;18.20;99.90
13462;DHT22;6803;45.264;5.468;2023-06-26T02:34:51;18.20;99.90
13462;DHT22;6803;45.264;5.468;2023-06-26T02:37:21;18.20;99.90
13462;DHT22;6803;45.264;5.468;2023-06-26T02:39:52;18.20;99.90
13462;DHT22;6803;45.264;5.468;2023-06-26T02:42:23;18.30;99.90
13462;DHT22;6803;45.264;5.468;2023-06-26T02:44:54;18.40;99.90
13462;DHT22;6803;45.264;5.468;2023-06-26T02:47:24;18.30;99.90
13462;DHT22;6803;45.264;5.468;2023-06-26T02:49:55;18.40;99.90
13462;DHT22;6803;45.264;5.468;2023-06-26T02:52:26;18.40;99.90
13462;DHT22;6803;45.264;5.468;2023-06-26T02:54:58;18.60;99.90
13462;DHT22;6803;45.264;5.468;2023-06-26T02:57:29;18.70;99.90
13462;DHT22;6803;45.264;5.468;2023-06-26T03:00:00;18.60;99.90
13462;DHT22;6803;45.264;5.468;2023-06-26T03:02:31;18.50;99.90
13462;DHT22;6803;45.264;5.468;2023-06-26T03:05:02;18.40;99.90
13462;DHT22;6803;45.264;5.468;2023-06-26T03:07:33;18.30;99.90
13462;DHT22;6803;45.264;5.468;2023-06-26T03:10:05;18.20;99.90
13462;DHT22;6803;45.264;5.468;2023-06-26T03:12:36;18.00;99.90
13462;DHT22;6803;45.264;5.468;2023-06-26T03:15:08;17.80;99.90
13462;DHT22;6803;45.264;5.468;2023-06-26T03:17:40;17.70;99.90
13462;DHT22;6803;45.264;5.468;2023-06-26T03:20:11;17.80;99.90
13462;DHT22;6803;45.264;5.468;2023-06-26T03:22:42;17.80;99.90
13462;DHT22;6803;45.264;5.468;2023-06-26T03:25:13;17.90;99.90
13462;DHT22;6803;45.264;5.468;2023-06-26T03:27:44;18.10;99.90
13462;DHT22;6803;45.264;5.468;2023-06-26T03:30:15;18.30;99.90
13462;DHT22;6803;45.264;5.468;2023-06-26T03:32:46;18.30;99.90
13462;DHT22;6803;45.264;5.468;2023-06-26T03:35:17;18.50;99.90
13462;DHT22;6803;45.264;5.468;2023-06-26T03:37:48;18.40;99.90
13462;DHT22;6803;45.264;5.468;2023-06-26T03:40:19;18.60;99.90
13462;DHT22;6803;45.264;5.468;2023-06-26T03:42:51;18.40;99.90
13462;DHT22;6803;45.264;5.468;2023-06-26T03:45:22;18.10;99.90
13462;DHT22;6803;45.264;5.468;2023-06-26T03:47:53;18.10;99.90
13462;DHT22;6803;45.264;5.468;2023-06-26T03:50:23;18.20;99.90
13462;DHT22;6803;45.264;5.468;2023-06-26T03:52:54;18.30;99.90
13462;DHT22;6803;45.264;5.468;2023-06-26T03:55:25;18.50;99.90
13462;DHT22;6803;45.264;5.468;2023-06-26T03:57:55;18.20;99.90
13462;DHT22;6803;45.264;5.468;2023-06-26T04:00:26;18.10;99.90
13462;DHT22;6803;45.264;5.468;2023-06-26T04:02:57;17.80;99.90
13462;DHT22;6803;45.264;5.468;2023-06-26T04:05:28;17.70;99.90
13462;DHT22;6803;45.264;5.468;2023-06-26T04:07:59;17.80;99.90
13462;DHT22;6803;45.264;5.468;2023-06-26T04:10:30;17.70;99.90
13462;DHT22;6803;45.264;5.468;2023-06-26T04:13:00;18.00;99.90
13462;DHT22;6803;45.264;5.468;2023-06-26T04:15:31;18.20;99.90
13462;DHT22;6803;45.264;5.468;2023-06-26T04:18:02;18.00;99.90
13462;DHT22;6803;45.264;5.468;2023-06-26T04:20:37;18.20;99.90
13462;DHT22;6803;45.264;5.468;2023-06-26T04:23:05;18.20;99.90
13462;DHT22;6803;45.264;5.468;2023-06-26T04:25:36;18.20;99.90
13462;DHT22;6803;45.264;5.468;2023-06-26T04:28:08;18.10;99.90
13462;DHT22;6803;45.264;5.468;2023-06-26T04:30:39;18.20;99.90
13462;DHT22;6803;45.264;5.468;2023-06-26T04:33:10;18.10;99.90
13462;DHT22;6803;45.264;5.468;2023-06-26T04:35:41;18.00;99.90
13462;DHT22;6803;45.264;5.468;2023-06-26T04:38:14;18.00;99.90
13462;DHT22;6803;45.264;5.468;2023-06-26T04:40:44;18.10;99.90
13462;DHT22;6803;45.264;5.468;2023-06-26T04:43:15;18.10;99.90
13462;DHT22;6803;45.264;5.468;2023-06-26T04:45:46;18.10;99.90
13462;DHT22;6803;45.264;5.468;2023-06-26T04:48:17;18.00;99.90
13462;DHT22;6803;45.264;5.468;2023-06-26T04:50:47;18.20;99.90
13462;DHT22;6803;45.264;5.468;2023-06-26T04:53:20;18.20;99.90
13462;DHT22;6803;45.264;5.468;2023-06-26T04:55:51;18.30;99.90
13462;DHT22;6803;45.264;5.468;2023-06-26T04:58:22;18.30;99.90
13462;DHT22;6803;45.264;5.468;2023-06-26T05:00:53;18.40;99.90
13462;DHT22;6803;45.264;5.468;2023-06-26T05:03:24;18.60;99.90
13462;DHT22;6803;45.264;5.468;2023-06-26T05:05:55;18.90;99.90
13462;DHT22;6803;45.264;5.468;2023-06-26T05:08:26;19.10;99.90
13462;DHT22;6803;45.264;5.468;2023-06-26T05:10:56;19.30;99.90
13462;DHT22;6803;45.264;5.468;2023-06-26T05:13:27;19.40;99.90
13462;DHT22;6803;45.264;5.468;2023-06-26T05:15:58;19.40;99.90
13462;DHT22;6803;45.264;5.468;2023-06-26T05:18:29;19.60;99.90
13462;DHT22;6803;45.264;5.468;2023-06-26T05:23:37;19.90;99.90
13462;DHT22;6803;45.264;5.468;2023-06-26T05:26:10;20.00;99.90
13462;DHT22;6803;45.264;5.468;2023-06-26T05:28:43;20.20;99.90
13462;DHT22;6803;45.264;5.468;2023-06-26T05:31:17;20.20;99.90
13462;DHT22;6803;45.264;5.468;2023-06-26T05:33:50;20.40;99.90
13462;DHT22;6803;45.264;5.468;2023-06-26T05:36:23;20.50;99.90
13462;DHT22;6803;45.264;5.468;2023-06-26T05:38:56;20.70;99.90
13462;DHT22;6803;45.264;5.468;2023-06-26T05:44:12;21.00;99.90
13462;DHT22;6803;45.264;5.468;2023-06-26T05:46:43;21.10;99.90
13462;DHT22;6803;45.264;5.468;2023-06-26T05:49:14;21.20;99.90
13462;DHT22;6803;45.264;5.468;2023-06-26T05:51:45;21.40;99.90
13462;DHT22;6803;45.264;5.468;2023-06-26T05:54:17;21.60;99.90
13462;DHT22;6803;45.264;5.468;2023-06-26T05:56:49;21.80;99.90
13462;DHT22;6803;45.264;5.468;2023-06-26T05:59:21;22.00;99.90
13462;DHT22;6803;45.264;5.468;2023-06-26T06:01:52;22.00;99.90
13462;DHT22;6803;45.264;5.468;2023-06-26T06:04:23;22.00;99.90
13462;DHT22;6803;45.264;5.468;2023-06-26T06:06:54;22.10;99.90
13462;DHT22;6803;45.264;5.468;2023-06-26T06:09:25;22.30;99.90
13462;DHT22;6803;45.264;5.468;2023-06-26T06:11:56;22.40;99.90
13462;DHT22;6803;45.264;5.468;2023-06-26T06:14:26;22.60;99.90
13462;DHT22;6803;45.264;5.468;2023-06-26T06:16:57;22.90;99.90
13462;DHT22;6803;45.264;5.468;2023-06-26T06:19:28;23.20;99.90
13462;DHT22;6803;45.264;5.468;2023-06-26T06:21:58;23.10;99.90
13462;DHT22;6803;45.264;5.468;2023-06-26T06:24:29;23.30;99.90
13462;DHT22;6803;45.264;5.468;2023-06-26T06:27:00;23.20;99.90
13462;DHT22;6803;45.264;5.468;2023-06-26T06:29:30;22.90;99.90
13462;DHT22;6803;45.264;5.468;2023-06-26T06:32:01;22.70;99.90
13462;DHT22;6803;45.264;5.468;2023-06-26T06:34:32;22.50;99.90
13462;DHT22;6803;45.264;5.468;2023-06-26T06:37:03;22.50;99.90
13462;DHT22;6803;45.264;5.468;2023-06-26T06:39:33;22.50;99.90
13462;DHT22;6803;45.264;5.468;2023-06-26T06:42:05;22.60;99.90
13462;DHT22;6803;45.264;5.468;2023-06-26T06:44:36;22.60;99.90
13462;DHT22;6803;45.264;5.468;2023-06-26T06:47:07;22.90;99.90
13462;DHT22;6803;45.264;5.468;2023-06-26T06:49:38;23.20;99.90
13462;DHT22;6803;45.264;5.468;2023-06-26T06:52:09;23.20;99.90
13462;DHT22;6803;45.264;5.468;2023-06-26T06:54:53;23.10;99.90
13462;DHT22;6803;45.264;5.468;2023-06-26T06:57:25;23.10;99.90
13462;DHT22;6803;45.264;5.468;2023-06-26T06:59:56;23.30;99.90
13462;DHT22;6803;45.264;5.468;2023-06-26T07:02:27;23.40;99.90
13462;DHT22;6803;45.264;5.468;2023-06-26T07:04:57;23.40;99.90
13462;DHT22;6803;45.264;5.468;2023-06-26T07:07:29;23.40;99.90
13462;DHT22;6803;45.264;5.468;2023-06-26T07:10:03;23.60;99.90
13462;DHT22;6803;45.264;5.468;2023-06-26T07:12:34;23.90;99.90
13462;DHT22;6803;45.264;5.468;2023-06-26T07:15:07;24.00;99.90
13462;DHT22;6803;45.264;5.468;2023-06-26T07:17:38;24.30;99.90
13462;DHT22;6803;45.264;5.468;2023-06-26T07:20:10;24.50;99.90
13462;DHT22;6803;45.264;5.468;2023-06-26T07:22:43;24.70;99.90
13462;DHT22;6803;45.264;5.468;2023-06-26T07:25:15;24.90;99.90
13462;DHT22;6803;45.264;5.468;2023-06-26T07:27:45;25.00;99.90
13462;DHT22;6803;45.264;5.468;2023-06-26T07:30:16;25.20;99.90
13462;DHT22;6803;45.264;5.468;2023-06-26T07:32:47;25.20;99.90
13462;DHT22;6803;45.264;5.468;2023-06-26T07:35:18;25.10;99.90
13462;DHT22;6803;45.264;5.468;2023-06-26T07:37:48;25.20;99.90
13462;DHT22;6803;45.264;5.468;2023-06-26T07:40:19;25.20;99.90
13462;DHT22;6803;45.264;5.468;2023-06-26T07:42:50;25.30;99.90
13462;DHT22;6803;45.264;5.468;2023-06-26T07:45:22;25.30;99.90
13462;DHT22;6803;45.264;5.468;2023-06-26T07:47:54;25.40;99.90
13462;DHT22;6803;45.264;5.468;2023-06-26T07:50:25;25.40;99.90
13462;DHT22;6803;45.264;5.468;2023-06-26T07:52:56;25.50;99.90
13462;DHT22;6803;45.264;5.468;2023-06-26T07:55:27;25.40;99.90
13462;DHT22;6803;45.264;5.468;2023-06-26T07:57:58;25.40;99.90
13462;DHT22;6803;45.264;5.468;2023-06-26T08:00:28;25.60;99.90
13462;DHT22;6803;45.264;5.468;2023-06-26T08:03:18;25.60;99.90
13462;DHT22;6803;45.264;5.468;2023-06-26T08:05:50;25.80;99.90
13462;DHT22;6803;45.264;5.468;2023-06-26T08:08:21;26.00;99.90
13462;DHT22;6803;45.264;5.468;2023-06-26T08:10:51;25.90;99.90
13462;DHT22;6803;45.264;5.468;2023-06-26T08:13:22;26.30;99.90
13462;DHT22;6803;45.264;5.468;2023-06-26T08:15:53;26.30;99.90
13462;DHT22;6803;45.264;5.468;2023-06-26T08:18:24;26.50;99.90
13462;DHT22;6803;45.264;5.468;2023-06-26T08:20:54;26.50;99.90
13462;DHT22;6803;45.264;5.468;2023-06-26T08:23:25;26.70;99.90
13462;DHT22;6803;45.264;5.468;2023-06-26T08:25:56;26.60;99.90
13462;DHT22;6803;45.264;5.468;2023-06-26T08:28:28;26.60;99.90
13462;DHT22;6803;45.264;5.468;2023-06-26T08:30:58;26.90;99.90
13462;DHT22;6803;45.264;5.468;2023-06-26T08:33:29;27.00;99.90
13462;DHT22;6803;45.264;5.468;2023-06-26T08:36:01;27.20;99.90
13462;DHT22;6803;45.264;5.468;2023-06-26T08:38:32;26.90;99.90
13462;DHT22;6803;45.264;5.468;2023-06-26T08:41:03;26.90;99.90
13462;DHT22;6803;45.264;5.468;2023-06-26T08:43:35;27.30;99.90
13462;DHT22;6803;45.264;5.468;2023-06-26T08:46:07;26.90;99.90
13462;DHT22;6803;45.264;5.468;2023-06-26T08:48:41;27.30;99.90
13462;DHT22;6803;45.264;5.468;2023-06-26T08:51:15;27.80;99.90
13462;DHT22;6803;45.264;5.468;2023-06-26T08:53:50;27.70;99.90
13462;DHT22;6803;45.264;5.468;2023-06-26T08:56:24;27.90;99.90
13462;DHT22;6803;45.264;5.468;2023-06-26T08:58:55;27.70;99.90
13462;DHT22;6803;45.264;5.468;2023-06-26T09:01:26;27.80;99.90
13462;DHT22;6803;45.264;5.468;2023-06-26T09:03:58;28.20;99.90
13462;DHT22;6803;45.264;5.468;2023-06-26T09:06:29;28.10;99.90
13462;DHT22;6803;45.264;5.468;2023-06-26T09:09:01;27.90;99.90
13462;DHT22;6803;45.264;5.468;2023-06-26T09:11:33;28.20;99.90
13462;DHT22;6803;45.264;5.468;2023-06-26T09:14:04;28.00;99.90
13462;DHT22;6803;45.264;5.468;2023-06-26T09:16:41;28.00;99.90
13462;DHT22;6803;45.264;5.468;2023-06-26T09:19:12;28.20;99.90
13462;DHT22;6803;45.264;5.468;2023-06-26T09:21:44;28.40;99.90
13462;DHT22;6803;45.264;5.468;2023-06-26T09:24:15;28.50;99.90
13462;DHT22;6803;45.264;5.468;2023-06-26T09:26:48;28.20;99.90
13462;DHT22;6803;45.264;5.468;2023-06-26T09:29:20;28.20;99.90
13462;DHT22;6803;45.264;5.468;2023-06-26T09:31:53;28.50;99.90
13462;DHT22;6803;45.264;5.468;2023-06-26T09:34:30;28.40;99.90
13462;DHT22;6803;45.264;5.468;2023-06-26T09:37:04;28.60;99.90
13462;DHT22;6803;45.264;5.468;2023-06-26T09:39:35;28.50;99.90
13462;DHT22;6803;45.264;5.468;2023-06-26T09:42:07;28.80;99.90
13462;DHT22;6803;45.264;5.468;2023-06-26T09:44:43;28.60;99.90
13462;DHT22;6803;45.264;5.468;2023-06-26T09:47:18;29.00;99.90
13462;DHT22;6803;45.264;5.468;2023-06-26T09:49:50;28.40;99.90
13462;DHT22;6803;45.264;5.468;2023-06-26T09:52:25;28.60;99.90
13462;DHT22;6803;45.264;5.468;2023-06-26T09:55:07;28.80;99.90
13462;DHT22;6803;45.264;5.468;2023-06-26T09:57:39;28.70;99.90
13462;DHT22;6803;45.264;5.468;2023-06-26T10:00:13;28.70;99.90
13462;DHT22;6803;45.264;5.468;2023-06-26T10:02:45;28.90;99.90
13462;DHT22;6803;45.264;5.468;2023-06-26T10:05:16;28.80;99.90
13462;DHT22;6803;45.264;5.468;2023-06-26T10:07:48;29.00;99.90
13462;DHT22;6803;45.264;5.468;2023-06-26T10:10:23;28.80;99.90
13462;DHT22;6803;45.264;5.468;2023-06-26T10:12:59;29.20;99.90
13462;DHT22;6803;45.264;5.468;2023-06-26T10:15:30;28.90;99.90
13462;DHT22;6803;45.264;5.468;2023-06-26T10:18:01;28.80;99.90
13462;DHT22;6803;45.264;5.468;2023-06-26T10:20:33;29.20;99.90
13462;DHT22;6803;45.264;5.468;2023-06-26T10:23:05;29.10;99.90
13462;DHT22;6803;45.264;5.468;2023-06-26T10:25:39;29.10;99.90
13462;DHT22;6803;45.264;5.468;2023-06-26T10:28:11;29.40;99.90
13462;DHT22;6803;45.264;5.468;2023-06-26T10:30:44;29.10;99.90
13462;DHT22;6803;45.264;5.468;2023-06-26T10:35:53;29.20;99.90
13462;DHT22;6803;45.264;5.468;2023-06-26T10:38:26;29.60;99.90
13462;DHT22;6803;45.264;5.468;2023-06-26T10:40:59;29.90;99.90
13462;DHT22;6803;45.264;5.468;2023-06-26T10:43:31;29.90;99.90
13462;DHT22;6803;45.264;5.468;2023-06-26T10:46:02;30.30;99.90
13462;DHT22;6803;45.264;5.468;2023-06-26T10:48:33;29.90;99.90
13462;DHT22;6803;45.264;5.468;2023-06-26T10:51:15;29.70;99.90
13462;DHT22;6803;45.264;5.468;2023-06-26T10:53:50;30.10;99.90
13462;DHT22;6803;45.264;5.468;2023-06-26T10:56:43;29.80;99.90
13462;DHT22;6803;45.264;5.468;2023-06-26T10:59:19;29.80;99.90
13462;DHT22;6803;45.264;5.468;2023-06-26T11:01:57;30.10;99.90
13462;DHT22;6803;45.264;5.468;2023-06-26T11:04:44;29.90;99.90
13462;DHT22;6803;45.264;5.468;2023-06-26T11:07:18;29.90;99.90
13462;DHT22;6803;45.264;5.468;2023-06-26T11:09:57;30.00;99.90
13462;DHT22;6803;45.264;5.468;2023-06-26T11:12:40;30.80;99.90
13462;DHT22;6803;45.264;5.468;2023-06-26T11:15:12;30.80;99.90
13462;DHT22;6803;45.264;5.468;2023-06-26T11:17:45;30.70;99.90
13462;DHT22;6803;45.264;5.468;2023-06-26T11:20:17;30.60;99.90
13462;DHT22;6803;45.264;5.468;2023-06-26T11:22:49;30.80;99.90
13462;DHT22;6803;45.264;5.468;2023-06-26T11:25:22;30.10;99.90
13462;DHT22;6803;45.264;5.468;2023-06-26T11:27:55;30.10;99.90
13462;DHT22;6803;45.264;5.468;2023-06-26T11:30:26;30.10;99.90
13462;DHT22;6803;45.264;5.468;2023-06-26T11:33:05;30.70;99.90
13462;DHT22;6803;45.264;5.468;2023-06-26T11:35:36;30.40;99.90
13462;DHT22;6803;45.264;5.468;2023-06-26T11:38:09;30.90;99.90
13462;DHT22;6803;45.264;5.468;2023-06-26T11:40:40;31.40;99.90
13462;DHT22;6803;45.264;5.468;2023-06-26T11:43:11;31.10;99.90
13462;DHT22;6803;45.264;5.468;2023-06-26T11:45:43;30.80;99.90
13462;DHT22;6803;45.264;5.468;2023-06-26T11:48:15;30.60;99.90
13462;DHT22;6803;45.264;5.468;2023-06-26T11:50:54;30.80;99.90
13462;DHT22;6803;45.264;5.468;2023-06-26T11:53:28;30.80;99.90
13462;DHT22;6803;45.264;5.468;2023-06-26T11:55:59;30.90;99.90
13462;DHT22;6803;45.264;5.468;2023-06-26T11:58:32;30.80;99.90
13462;DHT22;6803;45.264;5.468;2023-06-26T12:01:04;31.00;99.90
13462;DHT22;6803;45.264;5.468;2023-06-26T12:03:35;31.30;99.90
13462;DHT22;6803;45.264;5.468;2023-06-26T12:06:07;31.00;99.90
13462;DHT22;6803;45.264;5.468;2023-06-26T12:08:38;31.60;99.90
13462;DHT22;6803;45.264;5.468;2023-06-26T12:11:10;31.50;99.90
13462;DHT22;6803;45.264;5.468;2023-06-26T12:13:41;30.70;99.90
13462;DHT22;6803;45.264;5.468;2023-06-26T12:16:14;31.10;99.90
13462;DHT22;6803;45.264;5.468;2023-06-26T12:18:45;31.50;99.90
13462;DHT22;6803;45.264;5.468;2023-06-26T12:21:44;31.30;99.90
13462;DHT22;6803;45.264;5.468;2023-06-26T12:24:17;31.10;99.90
13462;DHT22;6803;45.264;5.468;2023-06-26T12:26:50;31.10;99.90
13462;DHT22;6803;45.264;5.468;2023-06-26T12:29:31;31.50;99.90
13462;DHT22;6803;45.264;5.468;2023-06-26T12:32:01;31.30;99.90
13462;DHT22;6803;45.264;5.468;2023-06-26T12:34:34;31.80;99.90
13462;DHT22;6803;45.264;5.468;2023-06-26T12:37:06;31.10;99.90
13462;DHT22;6803;45.264;5.468;2023-06-26T12:39:49;31.60;99.90
13462;DHT22;6803;45.264;5.468;2023-06-26T12:42:21;31.40;99.90
13462;DHT22;6803;45.264;5.468;2023-06-26T12:44:53;31.10;99.90
13462;DHT22;6803;45.264;5.468;2023-06-26T12:47:27;32.00;99.90
13462;DHT22;6803;45.264;5.468;2023-06-26T12:49:58;31.70;99.90
13462;DHT22;6803;45.264;5.468;2023-06-26T12:52:29;31.80;99.90
13462;DHT22;6803;45.264;5.468;2023-06-26T12:55:00;32.10;99.90
13462;DHT22;6803;45.264;5.468;2023-06-26T12:57:31;31.80;99.90
13462;DHT22;6803;45.264;5.468;2023-06-26T13:00:02;32.20;99.90
13462;DHT22;6803;45.264;5.468;2023-06-26T13:02:33;31.60;99.90
13462;DHT22;6803;45.264;5.468;2023-06-26T13:05:05;31.40;99.90
13462;DHT22;6803;45.264;5.468;2023-06-26T13:07:36;31.50;99.90
13462;DHT22;6803;45.264;5.468;2023-06-26T13:10:08;31.80;99.90
13462;DHT22;6803;45.264;5.468;2023-06-26T13:12:39;31.80;99.90
13462;DHT22;6803;45.264;5.468;2023-06-26T13:15:11;32.10;99.90
13462;DHT22;6803;45.264;5.468;2023-06-26T13:17:42;32.20;99.90
13462;DHT22;6803;45.264;5.468;2023-06-26T13:20:13;32.20;99.90
13462;DHT22;6803;45.264;5.468;2023-06-26T13:22:44;32.70;99.90
13462;DHT22;6803;45.264;5.468;2023-06-26T13:25:16;32.40;99.90
13462;DHT22;6803;45.264;5.468;2023-06-26T13:27:46;32.10;99.90
13462;DHT22;6803;45.264;5.468;2023-06-26T13:30:17;31.50;99.90
13462;DHT22;6803;45.264;5.468;2023-06-26T13:32:48;31.80;99.90
13462;DHT22;6803;45.264;5.468;2023-06-26T13:35:19;31.60;99.90
13462;DHT22;6803;45.264;5.468;2023-06-26T13:37:50;31.80;99.90
13462;DHT22;6803;45.264;5.468;2023-06-26T13:40:20;31.90;99.90
13462;DHT22;6803;45.264;5.468;2023-06-26T13:42:51;31.90;99.90
13462;DHT22;6803;45.264;5.468;2023-06-26T13:45:22;31.40;99.90
13462;DHT22;6803;45.264;5.468;2023-06-26T13:47:55;31.70;99.90
13462;DHT22;6803;45.264;5.468;2023-06-26T13:50:26;32.30;99.90
13462;DHT22;6803;45.264;5.468;2023-06-26T13:52:58;32.50;99.90
13462;DHT22;6803;45.264;5.468;2023-06-26T13:55:29;32.10;99.90
13462;DHT22;6803;45.264;5.468;2023-06-26T13:58:01;32.40;99.90
13462;DHT22;6803;45.264;5.468;2023-06-26T14:00:34;32.50;99.90
13462;DHT22;6803;45.264;5.468;2023-06-26T14:03:05;32.60;99.90
13462;DHT22;6803;45.264;5.468;2023-06-26T14:05:37;32.60;99.90
13462;DHT22;6803;45.264;5.468;2023-06-26T14:08:10;32.50;99.90
13462;DHT22;6803;45.264;5.468;2023-06-26T14:10:41;32.60;99.90
13462;DHT22;6803;45.264;5.468;2023-06-26T14:13:12;32.70;99.90
13462;DHT22;6803;45.264;5.468;2023-06-26T14:15:44;32.30;99.90
13462;DHT22;6803;45.264;5.468;2023-06-26T14:18:15;32.90;99.90
13462;DHT22;6803;45.264;5.468;2023-06-26T14:20:47;32.30;99.90
13462;DHT22;6803;45.264;5.468;2023-06-26T14:23:18;32.70;99.90
13462;DHT22;6803;45.264;5.468;2023-06-26T14:25:48;32.70;99.90
13462;DHT22;6803;45.264;5.468;2023-06-26T14:28:19;32.80;99.90
13462;DHT22;6803;45.264;5.468;2023-06-26T14:30:50;33.00;99.90
13462;DHT22;6803;45.264;5.468;2023-06-26T14:33:21;33.20;99.90
13462;DHT22;6803;45.264;5.468;2023-06-26T14:35:51;32.80;99.90
13462;DHT22;6803;45.264;5.468;2023-06-26T14:38:25;32.40;99.90
13462;DHT22;6803;45.264;5.468;2023-06-26T14:40:56;32.60;99.90
13462;DHT22;6803;45.264;5.468;2023-06-26T14:43:27;32.80;99.90
13462;DHT22;6803;45.264;5.468;2023-06-26T14:45:58;32.60;99.90
13462;DHT22;6803;45.264;5.468;2023-06-26T14:48:30;32.30;99.90
13462;DHT22;6803;45.264;5.468;2023-06-26T14:51:00;31.80;99.90
13462;DHT22;6803;45.264;5.468;2023-06-26T14:53:31;31.80;99.90
13462;DHT22;6803;45.264;5.468;2023-06-26T14:56:02;32.50;99.90
13462;DHT22;6803;45.264;5.468;2023-06-26T14:58:35;32.60;99.90
13462;DHT22;6803;45.264;5.468;2023-06-26T15:01:05;32.20;99.90
13462;DHT22;6803;45.264;5.468;2023-06-26T15:03:37;32.00;99.90
13462;DHT22;6803;45.264;5.468;2023-06-26T15:06:08;32.80;99.90
13462;DHT22;6803;45.264;5.468;2023-06-26T15:08:39;33.40;99.90
13462;DHT22;6803;45.264;5.468;2023-06-26T15:11:09;33.30;99.90
13462;DHT22;6803;45.264;5.468;2023-06-26T15:13:40;32.80;99.90
13462;DHT22;6803;45.264;5.468;2023-06-26T15:16:11;32.70;99.90
13462;DHT22;6803;45.264;5.468;2023-06-26T15:18:42;32.90;99.90
13462;DHT22;6803;45.264;5.468;2023-06-26T15:21:12;33.30;99.90
13462;DHT22;6803;45.264;5.468;2023-06-26T15:23:44;32.50;99.90
13462;DHT22;6803;45.264;5.468;2023-06-26T15:26:15;32.90;99.90
13462;DHT22;6803;45.264;5.468;2023-06-26T15:28:46;32.60;99.90
13462;DHT22;6803;45.264;5.468;2023-06-26T15:31:18;32.90;99.90
13462;DHT22;6803;45.264;5.468;2023-06-26T15:33:49;32.90;99.90
13462;DHT22;6803;45.264;5.468;2023-06-26T15:36:19;32.80;99.90
13462;DHT22;6803;45.264;5.468;2023-06-26T15:41:20;32.90;99.90
13462;DHT22;6803;45.264;5.468;2023-06-26T15:43:51;32.10;99.90
13462;DHT22;6803;45.264;5.468;2023-06-26T15:46:22;32.10;99.90
13462;DHT22;6803;45.264;5.468;2023-06-26T15:48:53;31.90;99.90
13462;DHT22;6803;45.264;5.468;2023-06-26T15:51:23;31.90;99.90
13462;DHT22;6803;45.264;5.468;2023-06-26T15:53:54;31.80;99.90
13462;DHT22;6803;45.264;5.468;2023-06-26T15:56:26;31.70;99.90
13462;DHT22;6803;45.264;5.468;2023-06-26T15:58:56;32.10;99.90
13462;DHT22;6803;45.264;5.468;2023-06-26T16:01:27;32.20;99.90
13462;DHT22;6803;45.264;5.468;2023-06-26T16:03:58;32.10;99.90
13462;DHT22;6803;45.264;5.468;2023-06-26T16:06:29;31.30;99.90
13462;DHT22;6803;45.264;5.468;2023-06-26T16:08:59;31.50;99.90
13462;DHT22;6803;45.264;5.468;2023-06-26T16:11:30;31.80;99.90
13462;DHT22;6803;45.264;5.468;2023-06-26T16:14:01;31.80;99.90
13462;DHT22;6803;45.264;5.468;2023-06-26T16:16:32;31.10;99.90
13462;DHT22;6803;45.264;5.468;2023-06-26T16:19:03;31.20;99.90
13462;DHT22;6803;45.264;5.468;2023-06-26T16:21:34;31.10;99.90
13462;DHT22;6803;45.264;5.468;2023-06-26T16:24:07;31.10;99.90
13462;DHT22;6803;45.264;5.468;2023-06-26T16:26:39;31.60;99.90